sensor_id;sensor_type;location;lat;lon;timestamp;P1;durP1;ratioP1;P2;durP2;ratioP2
45208;SDS011;30951;43.994;26.260;2022-08-07T00:00:21;12.05;;;10.82;;
45208;SDS011;30951;43.994;26.260;2022-08-07T00:02:46;15.50;;;11.45;;
45208;SDS011;30951;43.994;26.260;2022-08-07T00:05:12;17.27;;;10.43;;
45208;SDS011;30951;43.994;26.260;2022-08-07T00:07:37;19.95;;;11.13;;
45208;SDS011;30951;43.994;26.260;2022-08-07T00:10:03;14.88;;;10.18;;
45208;SDS011;30951;43.994;26.260;2022-08-07T00:12:29;15.27;;;10.15;;
45208;SDS011;30951;43.994;26.260;2022-08-07T00:14:56;12.48;;;10.38;;
45208;SDS011;30951;43.994;26.260;2022-08-07T00:17:22;20.73;;;11.30;;
45208;SDS011;30951;43.994;26.260;2022-08-07T00:19:47;20.13;;;11.93;;
45208;SDS011;30951;43.994;26.260;2022-08-07T00:22:13;16.85;;;10.82;;
45208;SDS011;30951;43.994;26.260;2022-08-07T00:24:38;23.08;;;10.98;;
45208;SDS011;30951;43.994;26.260;2022-08-07T00:27:04;16.25;;;10.50;;
45208;SDS011;30951;43.994;26.260;2022-08-07T00:29:29;20.80;;;10.23;;
45208;SDS011;30951;43.994;26.260;2022-08-07T00:31:55;17.92;;;11.07;;
45208;SDS011;30951;43.994;26.260;2022-08-07T00:34:26;18.63;;;9.85;;
45208;SDS011;30951;43.994;26.260;2022-08-07T00:36:52;15.38;;;8.93;;
45208;SDS011;30951;43.994;26.260;2022-08-07T00:39:18;17.92;;;10.32;;
45208;SDS011;30951;43.994;26.260;2022-08-07T00:41:53;24.45;;;10.30;;
45208;SDS011;30951;43.994;26.260;2022-08-07T00:44:21;12.45;;;10.63;;
45208;SDS011;30951;43.994;26.260;2022-08-07T00:46:48;14.82;;;10.05;;
45208;SDS011;30951;43.994;26.260;2022-08-07T00:49:13;15.95;;;10.07;;
45208;SDS011;30951;43.994;26.260;2022-08-07T00:51:39;16.70;;;10.70;;
45208;SDS011;30951;43.994;26.260;2022-08-07T00:54:05;12.98;;;10.30;;
45208;SDS011;30951;43.994;26.260;2022-08-07T00:56:31;18.52;;;11.77;;
45208;SDS011;30951;43.994;26.260;2022-08-07T00:58:58;14.27;;;10.75;;
45208;SDS011;30951;43.994;26.260;2022-08-07T01:01:24;21.10;;;9.88;;
45208;SDS011;30951;43.994;26.260;2022-08-07T01:03:50;14.10;;;9.15;;
45208;SDS011;30951;43.994;26.260;2022-08-07T01:06:16;19.55;;;9.52;;
45208;SDS011;30951;43.994;26.260;2022-08-07T01:08:42;15.45;;;9.38;;
45208;SDS011;30951;43.994;26.260;2022-08-07T01:11:09;12.73;;;8.52;;
45208;SDS011;30951;43.994;26.260;2022-08-07T01:13:35;13.77;;;9.00;;
45208;SDS011;30951;43.994;26.260;2022-08-07T01:16:01;21.98;;;9.35;;
45208;SDS011;30951;43.994;26.260;2022-08-07T01:18:28;11.88;;;8.30;;
45208;SDS011;30951;43.994;26.260;2022-08-07T01:23:31;11.52;;;8.88;;
45208;SDS011;30951;43.994;26.260;2022-08-07T01:25:57;11.52;;;9.27;;
45208;SDS011;30951;43.994;26.260;2022-08-07T01:28:23;15.25;;;9.18;;
45208;SDS011;30951;43.994;26.260;2022-08-07T01:30:48;15.32;;;9.95;;
45208;SDS011;30951;43.994;26.260;2022-08-07T01:33:14;13.15;;;10.23;;
45208;SDS011;30951;43.994;26.260;2022-08-07T01:35:40;20.65;;;11.65;;
45208;SDS011;30951;43.994;26.260;2022-08-07T01:38:06;21.88;;;13.00;;
45208;SDS011;30951;43.994;26.260;2022-08-07T01:40:32;14.82;;;11.88;;
45208;SDS011;30951;43.994;26.260;2022-08-07T01:42:58;17.83;;;12.38;;
45208;SDS011;30951;43.994;26.260;2022-08-07T01:45:23;19.02;;;14.00;;
45208;SDS011;30951;43.994;26.260;2022-08-07T01:47:50;14.93;;;12.10;;
45208;SDS011;30951;43.994;26.260;2022-08-07T01:50:16;16.75;;;12.48;;
45208;SDS011;30951;43.994;26.260;2022-08-07T01:52:42;15.52;;;12.65;;
45208;SDS011;30951;43.994;26.260;2022-08-07T01:55:08;16.02;;;13.07;;
45208;SDS011;30951;43.994;26.260;2022-08-07T01:57:36;15.43;;;12.77;;
45208;SDS011;30951;43.994;26.260;2022-08-07T02:00:06;14.55;;;12.98;;
45208;SDS011;30951;43.994;26.260;2022-08-07T02:02:35;14.85;;;12.55;;
45208;SDS011;30951;43.994;26.260;2022-08-07T02:05:11;19.98;;;13.65;;
45208;SDS011;30951;43.994;26.260;2022-08-07T02:07:42;16.92;;;12.80;;
45208;SDS011;30951;43.994;26.260;2022-08-07T02:10:12;20.23;;;12.82;;
45208;SDS011;30951;43.994;26.260;2022-08-07T02:12:38;15.18;;;12.23;;
45208;SDS011;30951;43.994;26.260;2022-08-07T02:15:05;21.90;;;11.80;;
45208;SDS011;30951;43.994;26.260;2022-08-07T02:17:31;15.55;;;12.15;;
45208;SDS011;30951;43.994;26.260;2022-08-07T02:19:58;17.00;;;11.68;;
45208;SDS011;30951;43.994;26.260;2022-08-07T02:22:25;24.83;;;11.90;;
45208;SDS011;30951;43.994;26.260;2022-08-07T02:24:52;13.80;;;11.75;;
45208;SDS011;30951;43.994;26.260;2022-08-07T02:27:19;18.05;;;11.88;;
45208;SDS011;30951;43.994;26.260;2022-08-07T02:29:46;22.17;;;12.18;;
45208;SDS011;30951;43.994;26.260;2022-08-07T02:32:12;16.77;;;11.43;;
45208;SDS011;30951;43.994;26.260;2022-08-07T02:34:39;17.13;;;10.80;;
45208;SDS011;30951;43.994;26.260;2022-08-07T02:37:06;16.27;;;11.48;;
45208;SDS011;30951;43.994;26.260;2022-08-07T02:39:33;19.50;;;11.75;;
45208;SDS011;30951;43.994;26.260;2022-08-07T02:42:00;13.10;;;11.70;;
45208;SDS011;30951;43.994;26.260;2022-08-07T02:44:26;15.52;;;11.48;;
45208;SDS011;30951;43.994;26.260;2022-08-07T02:46:53;23.88;;;12.50;;
45208;SDS011;30951;43.994;26.260;2022-08-07T02:49:20;15.43;;;11.90;;
45208;SDS011;30951;43.994;26.260;2022-08-07T02:51:46;18.13;;;11.43;;
45208;SDS011;30951;43.994;26.260;2022-08-07T02:54:12;14.70;;;11.07;;
45208;SDS011;30951;43.994;26.260;2022-08-07T02:56:39;17.73;;;11.77;;
45208;SDS011;30951;43.994;26.260;2022-08-07T02:59:07;23.65;;;13.48;;
45208;SDS011;30951;43.994;26.260;2022-08-07T03:01:33;29.40;;;13.98;;
45208;SDS011;30951;43.994;26.260;2022-08-07T03:04:01;27.13;;;14.38;;
45208;SDS011;30951;43.994;26.260;2022-08-07T03:06:28;30.38;;;14.52;;
45208;SDS011;30951;43.994;26.260;2022-08-07T03:08:54;33.08;;;15.52;;
45208;SDS011;30951;43.994;26.260;2022-08-07T03:11:20;26.15;;;14.93;;
45208;SDS011;30951;43.994;26.260;2022-08-07T03:13:46;20.27;;;15.10;;
45208;SDS011;30951;43.994;26.260;2022-08-07T03:16:11;20.92;;;13.98;;
45208;SDS011;30951;43.994;26.260;2022-08-07T03:18:37;22.30;;;14.38;;
45208;SDS011;30951;43.994;26.260;2022-08-07T03:21:04;18.55;;;14.43;;
45208;SDS011;30951;43.994;26.260;2022-08-07T03:23:30;22.05;;;14.40;;
45208;SDS011;30951;43.994;26.260;2022-08-07T03:25:56;20.23;;;14.55;;
45208;SDS011;30951;43.994;26.260;2022-08-07T03:28:24;22.38;;;15.30;;
45208;SDS011;30951;43.994;26.260;2022-08-07T03:30:50;25.52;;;14.93;;
45208;SDS011;30951;43.994;26.260;2022-08-07T03:33:36;23.08;;;16.05;;
45208;SDS011;30951;43.994;26.260;2022-08-07T03:36:02;20.58;;;15.10;;
45208;SDS011;30951;43.994;26.260;2022-08-07T03:38:28;20.60;;;15.70;;
45208;SDS011;30951;43.994;26.260;2022-08-07T03:40:54;21.75;;;15.38;;
45208;SDS011;30951;43.994;26.260;2022-08-07T03:43:21;17.67;;;14.88;;
45208;SDS011;30951;43.994;26.260;2022-08-07T03:45:46;19.38;;;15.13;;
45208;SDS011;30951;43.994;26.260;2022-08-07T03:48:12;18.35;;;15.15;;
45208;SDS011;30951;43.994;26.260;2022-08-07T03:50:37;25.98;;;15.93;;
45208;SDS011;30951;43.994;26.260;2022-08-07T03:53:03;49.10;;;17.23;;
45208;SDS011;30951;43.994;26.260;2022-08-07T03:55:29;61.42;;;17.65;;
45208;SDS011;30951;43.994;26.260;2022-08-07T03:57:55;37.35;;;16.13;;
45208;SDS011;30951;43.994;26.260;2022-08-07T04:00:21;41.47;;;15.82;;
45208;SDS011;30951;43.994;26.260;2022-08-07T04:02:47;25.70;;;16.17;;
45208;SDS011;30951;43.994;26.260;2022-08-07T04:05:13;33.92;;;15.43;;
45208;SDS011;30951;43.994;26.260;2022-08-07T04:07:43;29.58;;;15.02;;
45208;SDS011;30951;43.994;26.260;2022-08-07T04:10:09;33.95;;;13.98;;
45208;SDS011;30951;43.994;26.260;2022-08-07T04:12:35;31.23;;;14.52;;
45208;SDS011;30951;43.994;26.260;2022-08-07T04:15:01;20.83;;;14.48;;
45208;SDS011;30951;43.994;26.260;2022-08-07T04:17:26;31.90;;;14.18;;
45208;SDS011;30951;43.994;26.260;2022-08-07T04:19:52;23.38;;;13.93;;
45208;SDS011;30951;43.994;26.260;2022-08-07T04:22:17;21.77;;;13.35;;
45208;SDS011;30951;43.994;26.260;2022-08-07T04:24:44;22.80;;;13.30;;
45208;SDS011;30951;43.994;26.260;2022-08-07T04:27:10;22.55;;;12.32;;
45208;SDS011;30951;43.994;26.260;2022-08-07T04:29:35;13.60;;;12.02;;
45208;SDS011;30951;43.994;26.260;2022-08-07T04:32:01;17.70;;;11.52;;
45208;SDS011;30951;43.994;26.260;2022-08-07T04:34:27;22.27;;;11.65;;
45208;SDS011;30951;43.994;26.260;2022-08-07T04:36:53;26.95;;;11.32;;
45208;SDS011;30951;43.994;26.260;2022-08-07T04:39:18;23.88;;;11.38;;
45208;SDS011;30951;43.994;26.260;2022-08-07T04:41:44;14.57;;;10.55;;
45208;SDS011;30951;43.994;26.260;2022-08-07T04:44:09;14.57;;;10.07;;
45208;SDS011;30951;43.994;26.260;2022-08-07T04:46:41;12.23;;;9.13;;
45208;SDS011;30951;43.994;26.260;2022-08-07T04:51:58;10.70;;;9.32;;
45208;SDS011;30951;43.994;26.260;2022-08-07T04:54:40;13.82;;;9.35;;
45208;SDS011;30951;43.994;26.260;2022-08-07T04:57:35;22.83;;;8.77;;
45208;SDS011;30951;43.994;26.260;2022-08-07T05:00:08;9.40;;;8.50;;
45208;SDS011;30951;43.994;26.260;2022-08-07T05:07:37;11.70;;;7.60;;
45208;SDS011;30951;43.994;26.260;2022-08-07T05:12:43;10.20;;;8.52;;
45208;SDS011;30951;43.994;26.260;2022-08-07T05:15:13;11.43;;;8.45;;
45208;SDS011;30951;43.994;26.260;2022-08-07T05:17:48;12.50;;;7.65;;
45208;SDS011;30951;43.994;26.260;2022-08-07T05:20:18;9.18;;;7.20;;
45208;SDS011;30951;43.994;26.260;2022-08-07T05:22:48;8.48;;;7.57;;
45208;SDS011;30951;43.994;26.260;2022-08-07T05:25:16;10.35;;;7.35;;
45208;SDS011;30951;43.994;26.260;2022-08-07T05:27:43;12.88;;;7.43;;
45208;SDS011;30951;43.994;26.260;2022-08-07T05:30:10;8.48;;;7.50;;
45208;SDS011;30951;43.994;26.260;2022-08-07T05:32:36;8.38;;;7.47;;
45208;SDS011;30951;43.994;26.260;2022-08-07T05:35:01;10.15;;;7.40;;
45208;SDS011;30951;43.994;26.260;2022-08-07T05:37:28;8.20;;;7.50;;
45208;SDS011;30951;43.994;26.260;2022-08-07T05:39:54;12.02;;;7.93;;
45208;SDS011;30951;43.994;26.260;2022-08-07T05:42:20;8.25;;;7.35;;
45208;SDS011;30951;43.994;26.260;2022-08-07T05:44:46;12.90;;;7.00;;
45208;SDS011;30951;43.994;26.260;2022-08-07T05:47:12;12.40;;;7.55;;
45208;SDS011;30951;43.994;26.260;2022-08-07T05:49:38;9.35;;;7.28;;
45208;SDS011;30951;43.994;26.260;2022-08-07T05:52:04;7.90;;;7.20;;
45208;SDS011;30951;43.994;26.260;2022-08-07T05:54:29;8.20;;;7.30;;
45208;SDS011;30951;43.994;26.260;2022-08-07T05:56:55;9.63;;;7.53;;
45208;SDS011;30951;43.994;26.260;2022-08-07T05:59:22;14.30;;;8.20;;
45208;SDS011;30951;43.994;26.260;2022-08-07T06:01:49;12.60;;;7.78;;
45208;SDS011;30951;43.994;26.260;2022-08-07T06:04:15;10.13;;;7.28;;
45208;SDS011;30951;43.994;26.260;2022-08-07T06:06:42;12.90;;;6.72;;
45208;SDS011;30951;43.994;26.260;2022-08-07T06:09:08;8.30;;;7.30;;
45208;SDS011;30951;43.994;26.260;2022-08-07T06:11:34;7.82;;;6.97;;
45208;SDS011;30951;43.994;26.260;2022-08-07T06:14:00;9.27;;;7.10;;
45208;SDS011;30951;43.994;26.260;2022-08-07T06:16:28;8.85;;;7.22;;
45208;SDS011;30951;43.994;26.260;2022-08-07T06:21:23;8.25;;;7.55;;
45208;SDS011;30951;43.994;26.260;2022-08-07T06:23:49;11.52;;;7.53;;
45208;SDS011;30951;43.994;26.260;2022-08-07T06:26:14;8.45;;;7.40;;
45208;SDS011;30951;43.994;26.260;2022-08-07T06:28:58;11.23;;;7.50;;
45208;SDS011;30951;43.994;26.260;2022-08-07T06:31:24;11.27;;;7.78;;
45208;SDS011;30951;43.994;26.260;2022-08-07T06:33:50;7.90;;;7.10;;
45208;SDS011;30951;43.994;26.260;2022-08-07T06:36:15;9.38;;;7.00;;
45208;SDS011;30951;43.994;26.260;2022-08-07T06:38:41;8.57;;;7.05;;
45208;SDS011;30951;43.994;26.260;2022-08-07T06:41:11;8.60;;;7.72;;
45208;SDS011;30951;43.994;26.260;2022-08-07T06:43:42;8.15;;;7.35;;
45208;SDS011;30951;43.994;26.260;2022-08-07T06:46:09;7.93;;;6.93;;
45208;SDS011;30951;43.994;26.260;2022-08-07T06:48:34;11.15;;;7.45;;
45208;SDS011;30951;43.994;26.260;2022-08-07T06:51:01;7.35;;;6.65;;
45208;SDS011;30951;43.994;26.260;2022-08-07T06:53:29;10.02;;;7.38;;
45208;SDS011;30951;43.994;26.260;2022-08-07T06:55:55;11.70;;;6.85;;
45208;SDS011;30951;43.994;26.260;2022-08-07T06:58:21;8.23;;;6.55;;
45208;SDS011;30951;43.994;26.260;2022-08-07T07:00:47;9.82;;;6.65;;
45208;SDS011;30951;43.994;26.260;2022-08-07T07:03:13;10.38;;;7.50;;
45208;SDS011;30951;43.994;26.260;2022-08-07T07:05:39;10.52;;;7.43;;
45208;SDS011;30951;43.994;26.260;2022-08-07T07:08:05;9.02;;;6.78;;
45208;SDS011;30951;43.994;26.260;2022-08-07T07:10:33;11.23;;;7.03;;
45208;SDS011;30951;43.994;26.260;2022-08-07T07:13:18;8.48;;;6.68;;
45208;SDS011;30951;43.994;26.260;2022-08-07T07:16:01;9.00;;;7.05;;
45208;SDS011;30951;43.994;26.260;2022-08-07T07:18:44;7.35;;;6.53;;
45208;SDS011;30951;43.994;26.260;2022-08-07T07:23:39;7.75;;;7.03;;
45208;SDS011;30951;43.994;26.260;2022-08-07T07:26:06;11.73;;;6.70;;
45208;SDS011;30951;43.994;26.260;2022-08-07T07:31:28;11.82;;;6.70;;
45208;SDS011;30951;43.994;26.260;2022-08-07T07:33:57;7.28;;;6.60;;
45208;SDS011;30951;43.994;26.260;2022-08-07T07:36:27;12.68;;;6.55;;
45208;SDS011;30951;43.994;26.260;2022-08-07T07:38:54;9.50;;;7.15;;
45208;SDS011;30951;43.994;26.260;2022-08-07T07:41:20;28.55;;;8.32;;
45208;SDS011;30951;43.994;26.260;2022-08-07T07:43:47;18.27;;;7.53;;
45208;SDS011;30951;43.994;26.260;2022-08-07T07:46:15;7.32;;;6.63;;
45208;SDS011;30951;43.994;26.260;2022-08-07T07:48:41;7.00;;;6.30;;
45208;SDS011;30951;43.994;26.260;2022-08-07T07:51:07;10.70;;;6.53;;
45208;SDS011;30951;43.994;26.260;2022-08-07T07:53:35;9.57;;;6.13;;
45208;SDS011;30951;43.994;26.260;2022-08-07T07:56:02;13.30;;;6.80;;
45208;SDS011;30951;43.994;26.260;2022-08-07T07:58:28;11.73;;;6.28;;
45208;SDS011;30951;43.994;26.260;2022-08-07T08:00:55;9.18;;;6.15;;
45208;SDS011;30951;43.994;26.260;2022-08-07T08:03:21;12.07;;;6.95;;
45208;SDS011;30951;43.994;26.260;2022-08-07T08:05:48;6.53;;;6.03;;
45208;SDS011;30951;43.994;26.260;2022-08-07T08:08:14;10.68;;;6.13;;
45208;SDS011;30951;43.994;26.260;2022-08-07T08:10:40;6.43;;;5.82;;
45208;SDS011;30951;43.994;26.260;2022-08-07T08:13:06;7.35;;;5.20;;
45208;SDS011;30951;43.994;26.260;2022-08-07T08:15:35;6.20;;;5.55;;
45208;SDS011;30951;43.994;26.260;2022-08-07T08:18:02;9.13;;;5.53;;
45208;SDS011;30951;43.994;26.260;2022-08-07T08:20:28;10.23;;;5.53;;
45208;SDS011;30951;43.994;26.260;2022-08-07T08:22:55;5.78;;;5.28;;
45208;SDS011;30951;43.994;26.260;2022-08-07T08:25:40;8.77;;;5.65;;
45208;SDS011;30951;43.994;26.260;2022-08-07T08:28:26;9.32;;;5.80;;
45208;SDS011;30951;43.994;26.260;2022-08-07T08:30:54;8.13;;;5.07;;
45208;SDS011;30951;43.994;26.260;2022-08-07T08:33:22;6.32;;;4.93;;
45208;SDS011;30951;43.994;26.260;2022-08-07T08:35:49;10.23;;;5.30;;
45208;SDS011;30951;43.994;26.260;2022-08-07T08:38:16;6.82;;;5.63;;
45208;SDS011;30951;43.994;26.260;2022-08-07T08:40:44;11.73;;;4.80;;
45208;SDS011;30951;43.994;26.260;2022-08-07T08:43:37;5.35;;;4.85;;
45208;SDS011;30951;43.994;26.260;2022-08-07T08:48:46;12.60;;;5.13;;
45208;SDS011;30951;43.994;26.260;2022-08-07T08:51:18;7.95;;;4.45;;
45208;SDS011;30951;43.994;26.260;2022-08-07T08:59:02;17.20;;;4.68;;
45208;SDS011;30951;43.994;26.260;2022-08-07T09:01:45;4.85;;;4.40;;
45208;SDS011;30951;43.994;26.260;2022-08-07T09:04:17;9.23;;;4.72;;
45208;SDS011;30951;43.994;26.260;2022-08-07T09:18:33;5.60;;;4.25;;
45208;SDS011;30951;43.994;26.260;2022-08-07T09:38:12;5.45;;;4.13;;
45208;SDS011;30951;43.994;26.260;2022-08-07T09:43:40;5.15;;;4.47;;
45208;SDS011;30951;43.994;26.260;2022-08-07T10:00:12;5.57;;;3.78;;
45208;SDS011;30951;43.994;26.260;2022-08-07T10:13:48;7.25;;;3.90;;
45208;SDS011;30951;43.994;26.260;2022-08-07T10:30:49;8.55;;;4.38;;
45208;SDS011;30951;43.994;26.260;2022-08-07T10:33:37;5.82;;;5.00;;
45208;SDS011;30951;43.994;26.260;2022-08-07T10:41:57;13.35;;;4.57;;
45208;SDS011;30951;43.994;26.260;2022-08-07T10:49:46;8.15;;;4.10;;
45208;SDS011;30951;43.994;26.260;2022-08-07T10:52:20;7.40;;;3.55;;
45208;SDS011;30951;43.994;26.260;2022-08-07T10:54:55;5.50;;;3.50;;
45208;SDS011;30951;43.994;26.260;2022-08-07T11:00:04;8.95;;;3.55;;
45208;SDS011;30951;43.994;26.260;2022-08-07T11:08:19;9.73;;;3.20;;
45208;SDS011;30951;43.994;26.260;2022-08-07T11:19:22;12.55;;;3.67;;
45208;SDS011;30951;43.994;26.260;2022-08-07T11:21:57;3.42;;;3.13;;
45208;SDS011;30951;43.994;26.260;2022-08-07T11:24:32;3.90;;;3.10;;
45208;SDS011;30951;43.994;26.260;2022-08-07T11:27:11;4.13;;;3.17;;
45208;SDS011;30951;43.994;26.260;2022-08-07T11:35:11;4.60;;;3.45;;
45208;SDS011;30951;43.994;26.260;2022-08-07T11:54:44;5.95;;;3.50;;
45208;SDS011;30951;43.994;26.260;2022-08-07T11:57:42;6.28;;;3.30;;
45208;SDS011;30951;43.994;26.260;2022-08-07T12:00:10;9.90;;;2.97;;
45208;SDS011;30951;43.994;26.260;2022-08-07T12:08:07;9.50;;;3.15;;
45208;SDS011;30951;43.994;26.260;2022-08-07T12:10:47;10.70;;;3.17;;
45208;SDS011;30951;43.994;26.260;2022-08-07T12:19:26;4.22;;;3.40;;
45208;SDS011;30951;43.994;26.260;2022-08-07T12:22:05;8.80;;;3.35;;
45208;SDS011;30951;43.994;26.260;2022-08-07T12:24:36;6.38;;;2.70;;
45208;SDS011;30951;43.994;26.260;2022-08-07T12:27:25;5.43;;;2.83;;
45208;SDS011;30951;43.994;26.260;2022-08-07T12:29:55;11.52;;;3.30;;
45208;SDS011;30951;43.994;26.260;2022-08-07T12:35:05;8.00;;;3.05;;
45208;SDS011;30951;43.994;26.260;2022-08-07T12:37:33;10.05;;;2.83;;
45208;SDS011;30951;43.994;26.260;2022-08-07T12:40:00;3.42;;;3.05;;
45208;SDS011;30951;43.994;26.260;2022-08-07T12:42:26;9.40;;;3.03;;
45208;SDS011;30951;43.994;26.260;2022-08-07T12:44:52;11.32;;;3.08;;
45208;SDS011;30951;43.994;26.260;2022-08-07T12:47:31;4.25;;;2.60;;
45208;SDS011;30951;43.994;26.260;2022-08-07T12:50:08;7.65;;;3.08;;
45208;SDS011;30951;43.994;26.260;2022-08-07T12:52:46;5.03;;;2.90;;
45208;SDS011;30951;43.994;26.260;2022-08-07T12:57:53;6.63;;;2.50;;
45208;SDS011;30951;43.994;26.260;2022-08-07T13:00:30;3.27;;;2.27;;
45208;SDS011;30951;43.994;26.260;2022-08-07T13:03:09;3.33;;;2.40;;
45208;SDS011;30951;43.994;26.260;2022-08-07T13:05:59;4.43;;;2.70;;
45208;SDS011;30951;43.994;26.260;2022-08-07T13:08:33;5.25;;;2.53;;
45208;SDS011;30951;43.994;26.260;2022-08-07T13:24:59;6.72;;;2.30;;
45208;SDS011;30951;43.994;26.260;2022-08-07T13:27:46;5.88;;;2.30;;
45208;SDS011;30951;43.994;26.260;2022-08-07T13:30:12;7.07;;;2.75;;
45208;SDS011;30951;43.994;26.260;2022-08-07T13:35:05;4.38;;;2.35;;
45208;SDS011;30951;43.994;26.260;2022-08-07T13:43:03;6.32;;;2.60;;
45208;SDS011;30951;43.994;26.260;2022-08-07T13:45:34;6.40;;;2.45;;
45208;SDS011;30951;43.994;26.260;2022-08-07T13:48:02;7.03;;;2.70;;
45208;SDS011;30951;43.994;26.260;2022-08-07T13:50:28;5.43;;;2.80;;
45208;SDS011;30951;43.994;26.260;2022-08-07T13:52:54;10.38;;;2.95;;
45208;SDS011;30951;43.994;26.260;2022-08-07T13:55:21;5.95;;;2.55;;
45208;SDS011;30951;43.994;26.260;2022-08-07T13:57:49;9.95;;;2.42;;
45208;SDS011;30951;43.994;26.260;2022-08-07T14:00:17;5.63;;;2.67;;
45208;SDS011;30951;43.994;26.260;2022-08-07T14:02:43;5.82;;;4.07;;
45208;SDS011;30951;43.994;26.260;2022-08-07T14:05:12;7.35;;;2.38;;
45208;SDS011;30951;43.994;26.260;2022-08-07T14:10:08;5.63;;;2.87;;
45208;SDS011;30951;43.994;26.260;2022-08-07T14:15:15;36.63;;;22.85;;
45208;SDS011;30951;43.994;26.260;2022-08-07T14:17:43;15.48;;;12.73;;
45208;SDS011;30951;43.994;26.260;2022-08-07T14:20:28;5.95;;;3.83;;
45208;SDS011;30951;43.994;26.260;2022-08-07T14:23:14;11.15;;;2.90;;
45208;SDS011;30951;43.994;26.260;2022-08-07T14:25:42;5.72;;;2.92;;
45208;SDS011;30951;43.994;26.260;2022-08-07T14:28:09;3.97;;;2.85;;
45208;SDS011;30951;43.994;26.260;2022-08-07T14:30:36;4.18;;;2.95;;
45208;SDS011;30951;43.994;26.260;2022-08-07T14:33:03;80.00;;;43.88;;
45208;SDS011;30951;43.994;26.260;2022-08-07T14:35:30;5.68;;;2.97;;
45208;SDS011;30951;43.994;26.260;2022-08-07T14:37:57;12.85;;;2.60;;
45208;SDS011;30951;43.994;26.260;2022-08-07T14:40:24;4.45;;;2.85;;
45208;SDS011;30951;43.994;26.260;2022-08-07T14:42:55;9.80;;;2.67;;
45208;SDS011;30951;43.994;26.260;2022-08-07T14:45:33;15.43;;;2.78;;
45208;SDS011;30951;43.994;26.260;2022-08-07T14:48:05;9.75;;;3.08;;
45208;SDS011;30951;43.994;26.260;2022-08-07T14:50:31;3.75;;;2.65;;
45208;SDS011;30951;43.994;26.260;2022-08-07T14:52:59;9.32;;;2.60;;
45208;SDS011;30951;43.994;26.260;2022-08-07T14:55:27;7.22;;;2.97;;
45208;SDS011;30951;43.994;26.260;2022-08-07T14:57:54;3.97;;;2.63;;
45208;SDS011;30951;43.994;26.260;2022-08-07T15:00:22;6.00;;;2.72;;
45208;SDS011;30951;43.994;26.260;2022-08-07T15:02:52;7.10;;;3.50;;
45208;SDS011;30951;43.994;26.260;2022-08-07T15:05:18;6.82;;;3.00;;
45208;SDS011;30951;43.994;26.260;2022-08-07T15:07:45;10.63;;;4.05;;
45208;SDS011;30951;43.994;26.260;2022-08-07T15:10:22;5.18;;;3.55;;
45208;SDS011;30951;43.994;26.260;2022-08-07T15:12:50;10.55;;;5.60;;
45208;SDS011;30951;43.994;26.260;2022-08-07T15:18:20;9.20;;;3.30;;
45208;SDS011;30951;43.994;26.260;2022-08-07T15:20:47;6.13;;;2.40;;
45208;SDS011;30951;43.994;26.260;2022-08-07T15:23:18;9.90;;;2.72;;
45208;SDS011;30951;43.994;26.260;2022-08-07T15:25:52;5.53;;;2.20;;
45208;SDS011;30951;43.994;26.260;2022-08-07T15:28:19;6.72;;;1.85;;
45208;SDS011;30951;43.994;26.260;2022-08-07T15:30:46;7.28;;;1.88;;
45208;SDS011;30951;43.994;26.260;2022-08-07T15:33:17;5.18;;;1.83;;
45208;SDS011;30951;43.994;26.260;2022-08-07T15:35:47;2.08;;;1.75;;
45208;SDS011;30951;43.994;26.260;2022-08-07T15:38:14;4.80;;;1.90;;
45208;SDS011;30951;43.994;26.260;2022-08-07T15:40:40;5.57;;;1.63;;
45208;SDS011;30951;43.994;26.260;2022-08-07T15:45:36;1.90;;;1.38;;
45208;SDS011;30951;43.994;26.260;2022-08-07T15:50:37;5.65;;;1.65;;
45208;SDS011;30951;43.994;26.260;2022-08-07T15:53:13;7.43;;;2.15;;
45208;SDS011;30951;43.994;26.260;2022-08-07T15:55:44;7.28;;;2.13;;
45208;SDS011;30951;43.994;26.260;2022-08-07T15:58:15;4.38;;;2.15;;
45208;SDS011;30951;43.994;26.260;2022-08-07T16:00:41;4.57;;;2.67;;
45208;SDS011;30951;43.994;26.260;2022-08-07T16:03:09;3.10;;;2.33;;
45208;SDS011;30951;43.994;26.260;2022-08-07T16:05:38;5.72;;;2.35;;
45208;SDS011;30951;43.994;26.260;2022-08-07T16:08:20;5.68;;;2.10;;
45208;SDS011;30951;43.994;26.260;2022-08-07T16:10:51;3.60;;;2.10;;
45208;SDS011;30951;43.994;26.260;2022-08-07T16:19:00;9.52;;;2.88;;
45208;SDS011;30951;43.994;26.260;2022-08-07T16:30:11;3.13;;;2.10;;
45208;SDS011;30951;43.994;26.260;2022-08-07T16:32:41;2.83;;;1.90;;
45208;SDS011;30951;43.994;26.260;2022-08-07T16:35:11;5.95;;;2.08;;
45208;SDS011;30951;43.994;26.260;2022-08-07T16:55:30;7.63;;;2.10;;
45208;SDS011;30951;43.994;26.260;2022-08-07T17:08:49;5.03;;;2.42;;
45208;SDS011;30951;43.994;26.260;2022-08-07T17:15:06;2.58;;;2.22;;
45208;SDS011;30951;43.994;26.260;2022-08-07T17:17:18;7.28;;;2.50;;
45208;SDS011;30951;43.994;26.260;2022-08-07T17:19:48;10.35;;;2.42;;
45208;SDS011;30951;43.994;26.260;2022-08-07T17:22:33;6.90;;;2.83;;
45208;SDS011;30951;43.994;26.260;2022-08-07T17:27:34;13.57;;;2.75;;
45208;SDS011;30951;43.994;26.260;2022-08-07T17:30:18;4.47;;;2.90;;
45208;SDS011;30951;43.994;26.260;2022-08-07T17:35:59;4.72;;;3.78;;
45208;SDS011;30951;43.994;26.260;2022-08-07T17:38:44;3.55;;;3.10;;
45208;SDS011;30951;43.994;26.260;2022-08-07T17:43:59;6.50;;;3.92;;
45208;SDS011;30951;43.994;26.260;2022-08-07T17:46:32;18.17;;;8.55;;
45208;SDS011;30951;43.994;26.260;2022-08-07T17:49:35;17.73;;;7.50;;
45208;SDS011;30951;43.994;26.260;2022-08-07T17:59:55;5.68;;;2.60;;
45208;SDS011;30951;43.994;26.260;2022-08-07T18:02:35;17.05;;;3.05;;
45208;SDS011;30951;43.994;26.260;2022-08-07T18:13:19;5.70;;;2.88;;
45208;SDS011;30951;43.994;26.260;2022-08-07T18:21:47;5.10;;;2.80;;
45208;SDS011;30951;43.994;26.260;2022-08-07T18:24:29;3.53;;;2.50;;
45208;SDS011;30951;43.994;26.260;2022-08-07T18:41:07;4.88;;;3.28;;
45208;SDS011;30951;43.994;26.260;2022-08-07T18:48:41;7.18;;;3.22;;
45208;SDS011;30951;43.994;26.260;2022-08-07T18:51:22;6.82;;;2.80;;
45208;SDS011;30951;43.994;26.260;2022-08-07T18:56:47;5.50;;;2.70;;
45208;SDS011;30951;43.994;26.260;2022-08-07T19:05:02;3.30;;;3.00;;
45208;SDS011;30951;43.994;26.260;2022-08-07T19:10:22;4.45;;;3.35;;
45208;SDS011;30951;43.994;26.260;2022-08-07T19:15:28;3.45;;;3.15;;
45208;SDS011;30951;43.994;26.260;2022-08-07T19:20:40;7.20;;;3.85;;
45208;SDS011;30951;43.994;26.260;2022-08-07T19:23:40;8.55;;;4.10;;
45208;SDS011;30951;43.994;26.260;2022-08-07T19:26:12;6.97;;;3.45;;
45208;SDS011;30951;43.994;26.260;2022-08-07T19:28:41;6.30;;;4.03;;
45208;SDS011;30951;43.994;26.260;2022-08-07T19:31:09;100.93;;;28.58;;
45208;SDS011;30951;43.994;26.260;2022-08-07T19:33:41;91.80;;;32.35;;
45208;SDS011;30951;43.994;26.260;2022-08-07T19:36:08;52.28;;;18.42;;
45208;SDS011;30951;43.994;26.260;2022-08-07T19:38:37;12.70;;;5.28;;
45208;SDS011;30951;43.994;26.260;2022-08-07T19:41:05;10.73;;;3.95;;
45208;SDS011;30951;43.994;26.260;2022-08-07T19:43:32;6.28;;;3.42;;
45208;SDS011;30951;43.994;26.260;2022-08-07T19:45:59;16.58;;;4.50;;
45208;SDS011;30951;43.994;26.260;2022-08-07T19:48:31;17.40;;;4.50;;
45208;SDS011;30951;43.994;26.260;2022-08-07T19:51:02;7.13;;;3.80;;